sensor_id;sensor_type;location;lat;lon;timestamp;temperature;humidity
6978;DHT22;3529;53.244;10.414;2022-07-22T00:01:43;18.60;99.90
6978;DHT22;3529;53.244;10.414;2022-07-22T00:04:09;18.60;99.90
6978;DHT22;3529;53.244;10.414;2022-07-22T00:06:34;18.60;99.90
6978;DHT22;3529;53.244;10.414;2022-07-22T00:09:00;18.60;99.90
6978;DHT22;3529;53.244;10.414;2022-07-22T00:11:26;18.60;99.90
6978;DHT22;3529;53.244;10.414;2022-07-22T00:13:51;18.60;99.90
6978;DHT22;3529;53.244;10.414;2022-07-22T00:16:17;18.60;99.90
6978;DHT22;3529;53.244;10.414;2022-07-22T00:18:43;18.60;99.90
6978;DHT22;3529;53.244;10.414;2022-07-22T00:21:08;18.70;99.90
6978;DHT22;3529;53.244;10.414;2022-07-22T00:23:34;18.70;99.90
6978;DHT22;3529;53.244;10.414;2022-07-22T00:26:00;18.60;99.90
6978;DHT22;3529;53.244;10.414;2022-07-22T00:28:26;18.60;99.90
6978;DHT22;3529;53.244;10.414;2022-07-22T00:30:52;18.60;99.90
6978;DHT22;3529;53.244;10.414;2022-07-22T00:33:17;18.60;99.90
6978;DHT22;3529;53.244;10.414;2022-07-22T00:35:43;18.60;99.90
6978;DHT22;3529;53.244;10.414;2022-07-22T00:38:09;18.50;99.90
6978;DHT22;3529;53.244;10.414;2022-07-22T00:40:34;18.50;99.90
6978;DHT22;3529;53.244;10.414;2022-07-22T00:43:00;18.50;99.90
6978;DHT22;3529;53.244;10.414;2022-07-22T00:45:26;18.60;99.90
6978;DHT22;3529;53.244;10.414;2022-07-22T00:47:52;18.50;99.90
6978;DHT22;3529;53.244;10.414;2022-07-22T00:50:17;18.50;99.90
6978;DHT22;3529;53.244;10.414;2022-07-22T00:52:45;18.50;99.90
6978;DHT22;3529;53.244;10.414;2022-07-22T00:55:11;18.60;99.90
6978;DHT22;3529;53.244;10.414;2022-07-22T00:57:37;18.60;99.90
6978;DHT22;3529;53.244;10.414;2022-07-22T01:00:06;18.60;99.90
6978;DHT22;3529;53.244;10.414;2022-07-22T01:02:33;18.60;99.90
6978;DHT22;3529;53.244;10.414;2022-07-22T01:04:58;18.60;99.90
6978;DHT22;3529;53.244;10.414;2022-07-22T01:07:24;18.60;99.90
6978;DHT22;3529;53.244;10.414;2022-07-22T01:09:49;18.60;99.90
6978;DHT22;3529;53.244;10.414;2022-07-22T01:12:15;18.70;99.90
6978;DHT22;3529;53.244;10.414;2022-07-22T01:14:41;18.70;99.90
6978;DHT22;3529;53.244;10.414;2022-07-22T01:17:07;18.70;99.90
6978;DHT22;3529;53.244;10.414;2022-07-22T01:19:32;18.70;99.90
6978;DHT22;3529;53.244;10.414;2022-07-22T01:22:00;18.70;99.90
6978;DHT22;3529;53.244;10.414;2022-07-22T01:24:26;18.70;99.90
6978;DHT22;3529;53.244;10.414;2022-07-22T01:26:51;18.70;99.90
6978;DHT22;3529;53.244;10.414;2022-07-22T01:29:17;18.70;99.90
6978;DHT22;3529;53.244;10.414;2022-07-22T01:31:42;18.70;99.90
6978;DHT22;3529;53.244;10.414;2022-07-22T01:34:08;18.70;99.90
6978;DHT22;3529;53.244;10.414;2022-07-22T01:36:34;18.70;99.90
6978;DHT22;3529;53.244;10.414;2022-07-22T01:38:59;18.70;99.90
6978;DHT22;3529;53.244;10.414;2022-07-22T01:41:25;18.70;99.90
6978;DHT22;3529;53.244;10.414;2022-07-22T01:43:51;18.60;99.90
6978;DHT22;3529;53.244;10.414;2022-07-22T01:46:16;18.70;99.90
6978;DHT22;3529;53.244;10.414;2022-07-22T01:48:44;18.70;99.90
6978;DHT22;3529;53.244;10.414;2022-07-22T01:51:09;18.70;99.90
6978;DHT22;3529;53.244;10.414;2022-07-22T01:53:35;18.70;99.90
6978;DHT22;3529;53.244;10.414;2022-07-22T01:56:00;18.70;99.90
6978;DHT22;3529;53.244;10.414;2022-07-22T01:58:26;18.70;99.90
6978;DHT22;3529;53.244;10.414;2022-07-22T02:00:52;18.70;99.90
6978;DHT22;3529;53.244;10.414;2022-07-22T02:03:18;18.60;99.90
6978;DHT22;3529;53.244;10.414;2022-07-22T02:05:43;18.50;99.90
6978;DHT22;3529;53.244;10.414;2022-07-22T02:08:10;18.40;99.90
6978;DHT22;3529;53.244;10.414;2022-07-22T02:10:37;18.20;99.90
6978;DHT22;3529;53.244;10.414;2022-07-22T02:13:06;18.20;99.90
6978;DHT22;3529;53.244;10.414;2022-07-22T02:15:32;18.10;99.90
6978;DHT22;3529;53.244;10.414;2022-07-22T02:17:57;18.00;99.90
6978;DHT22;3529;53.244;10.414;2022-07-22T02:20:23;18.00;99.90
6978;DHT22;3529;53.244;10.414;2022-07-22T02:22:49;17.90;99.90
6978;DHT22;3529;53.244;10.414;2022-07-22T02:25:15;17.90;99.90
6978;DHT22;3529;53.244;10.414;2022-07-22T02:27:42;17.90;99.90
6978;DHT22;3529;53.244;10.414;2022-07-22T02:30:08;17.80;99.90
6978;DHT22;3529;53.244;10.414;2022-07-22T02:32:35;17.80;99.90
6978;DHT22;3529;53.244;10.414;2022-07-22T02:35:01;17.70;99.90
6978;DHT22;3529;53.244;10.414;2022-07-22T02:37:26;17.70;99.90
6978;DHT22;3529;53.244;10.414;2022-07-22T02:39:52;17.60;99.90
6978;DHT22;3529;53.244;10.414;2022-07-22T02:42:18;17.60;99.90
6978;DHT22;3529;53.244;10.414;2022-07-22T02:44:43;17.60;99.90
6978;DHT22;3529;53.244;10.414;2022-07-22T02:47:09;17.60;99.90
6978;DHT22;3529;53.244;10.414;2022-07-22T02:49:34;17.60;99.90
6978;DHT22;3529;53.244;10.414;2022-07-22T02:52:00;17.60;99.90
6978;DHT22;3529;53.244;10.414;2022-07-22T02:54:26;17.50;99.90
6978;DHT22;3529;53.244;10.414;2022-07-22T02:56:52;17.50;99.90
6978;DHT22;3529;53.244;10.414;2022-07-22T02:59:17;17.50;99.90
6978;DHT22;3529;53.244;10.414;2022-07-22T03:01:43;17.50;99.90
6978;DHT22;3529;53.244;10.414;2022-07-22T03:04:08;17.50;99.90
6978;DHT22;3529;53.244;10.414;2022-07-22T03:06:34;17.40;99.90
6978;DHT22;3529;53.244;10.414;2022-07-22T03:08:59;17.40;99.90
6978;DHT22;3529;53.244;10.414;2022-07-22T03:11:25;17.40;99.90
6978;DHT22;3529;53.244;10.414;2022-07-22T03:13:51;17.30;99.90
6978;DHT22;3529;53.244;10.414;2022-07-22T03:16:16;17.30;99.90
6978;DHT22;3529;53.244;10.414;2022-07-22T03:18:42;17.20;99.90
6978;DHT22;3529;53.244;10.414;2022-07-22T03:21:07;17.20;99.90
6978;DHT22;3529;53.244;10.414;2022-07-22T03:23:33;17.10;99.90
6978;DHT22;3529;53.244;10.414;2022-07-22T03:25:58;17.10;99.90
6978;DHT22;3529;53.244;10.414;2022-07-22T03:28:24;17.10;99.90
6978;DHT22;3529;53.244;10.414;2022-07-22T03:30:50;17.10;99.90
6978;DHT22;3529;53.244;10.414;2022-07-22T03:33:15;17.00;99.90
6978;DHT22;3529;53.244;10.414;2022-07-22T03:35:41;17.00;99.90
6978;DHT22;3529;53.244;10.414;2022-07-22T03:38:07;17.00;99.90
6978;DHT22;3529;53.244;10.414;2022-07-22T03:40:32;16.90;99.90
6978;DHT22;3529;53.244;10.414;2022-07-22T03:42:58;16.90;99.90
6978;DHT22;3529;53.244;10.414;2022-07-22T03:45:23;16.90;99.90
6978;DHT22;3529;53.244;10.414;2022-07-22T03:47:49;16.90;99.90
6978;DHT22;3529;53.244;10.414;2022-07-22T03:50:14;16.90;99.90
6978;DHT22;3529;53.244;10.414;2022-07-22T03:52:40;16.90;99.90
6978;DHT22;3529;53.244;10.414;2022-07-22T03:55:06;16.90;99.90
6978;DHT22;3529;53.244;10.414;2022-07-22T03:57:32;16.80;99.90
6978;DHT22;3529;53.244;10.414;2022-07-22T03:59:58;16.80;99.90
6978;DHT22;3529;53.244;10.414;2022-07-22T04:02:23;16.80;99.90
6978;DHT22;3529;53.244;10.414;2022-07-22T04:04:49;16.80;99.90
6978;DHT22;3529;53.244;10.414;2022-07-22T04:07:14;16.80;99.90
6978;DHT22;3529;53.244;10.414;2022-07-22T04:09:40;16.70;99.90
6978;DHT22;3529;53.244;10.414;2022-07-22T04:12:06;16.70;99.90
6978;DHT22;3529;53.244;10.414;2022-07-22T04:14:32;16.70;99.90
6978;DHT22;3529;53.244;10.414;2022-07-22T04:16:57;16.70;99.90
6978;DHT22;3529;53.244;10.414;2022-07-22T04:19:23;16.60;99.90
6978;DHT22;3529;53.244;10.414;2022-07-22T04:21:48;16.70;99.90
6978;DHT22;3529;53.244;10.414;2022-07-22T04:24:14;16.60;99.90
6978;DHT22;3529;53.244;10.414;2022-07-22T04:26:40;16.60;99.90
6978;DHT22;3529;53.244;10.414;2022-07-22T04:29:05;16.60;99.90
6978;DHT22;3529;53.244;10.414;2022-07-22T04:31:31;16.60;99.90
6978;DHT22;3529;53.244;10.414;2022-07-22T04:33:58;16.60;99.90
6978;DHT22;3529;53.244;10.414;2022-07-22T04:36:23;16.70;99.90
6978;DHT22;3529;53.244;10.414;2022-07-22T04:38:49;16.60;99.90
6978;DHT22;3529;53.244;10.414;2022-07-22T04:41:15;16.60;99.90
6978;DHT22;3529;53.244;10.414;2022-07-22T04:43:41;16.60;99.90
6978;DHT22;3529;53.244;10.414;2022-07-22T04:46:06;16.60;99.90
6978;DHT22;3529;53.244;10.414;2022-07-22T04:48:32;16.60;99.90
6978;DHT22;3529;53.244;10.414;2022-07-22T04:50:59;16.60;99.90
6978;DHT22;3529;53.244;10.414;2022-07-22T04:53:26;16.60;99.90
6978;DHT22;3529;53.244;10.414;2022-07-22T04:55:51;16.60;99.90
6978;DHT22;3529;53.244;10.414;2022-07-22T04:58:17;16.50;99.90
6978;DHT22;3529;53.244;10.414;2022-07-22T05:00:43;16.50;99.90
6978;DHT22;3529;53.244;10.414;2022-07-22T05:03:08;16.50;99.90
6978;DHT22;3529;53.244;10.414;2022-07-22T05:05:34;16.40;99.90
6978;DHT22;3529;53.244;10.414;2022-07-22T05:08:00;16.30;99.90
6978;DHT22;3529;53.244;10.414;2022-07-22T05:10:25;16.30;99.90
6978;DHT22;3529;53.244;10.414;2022-07-22T05:12:51;16.30;99.90
6978;DHT22;3529;53.244;10.414;2022-07-22T05:15:17;16.30;99.90
6978;DHT22;3529;53.244;10.414;2022-07-22T05:17:43;16.30;99.90
6978;DHT22;3529;53.244;10.414;2022-07-22T05:20:09;16.30;99.90
6978;DHT22;3529;53.244;10.414;2022-07-22T05:22:35;16.20;99.90
6978;DHT22;3529;53.244;10.414;2022-07-22T05:25:01;16.30;99.90
6978;DHT22;3529;53.244;10.414;2022-07-22T05:27:27;16.30;99.90
6978;DHT22;3529;53.244;10.414;2022-07-22T05:29:52;16.30;99.90
6978;DHT22;3529;53.244;10.414;2022-07-22T05:32:18;16.30;99.90
6978;DHT22;3529;53.244;10.414;2022-07-22T05:34:43;16.30;99.90
6978;DHT22;3529;53.244;10.414;2022-07-22T05:37:09;16.40;99.90
6978;DHT22;3529;53.244;10.414;2022-07-22T05:39:35;16.40;99.90
6978;DHT22;3529;53.244;10.414;2022-07-22T05:42:00;16.40;99.90
6978;DHT22;3529;53.244;10.414;2022-07-22T05:44:26;16.40;99.90
6978;DHT22;3529;53.244;10.414;2022-07-22T05:46:51;16.50;99.90
6978;DHT22;3529;53.244;10.414;2022-07-22T05:49:17;16.50;99.90
6978;DHT22;3529;53.244;10.414;2022-07-22T05:51:43;16.50;99.90
6978;DHT22;3529;53.244;10.414;2022-07-22T05:54:08;16.60;99.90
6978;DHT22;3529;53.244;10.414;2022-07-22T05:56:34;16.60;99.90
6978;DHT22;3529;53.244;10.414;2022-07-22T05:59:00;16.60;99.90
6978;DHT22;3529;53.244;10.414;2022-07-22T06:01:25;16.70;99.90
6978;DHT22;3529;53.244;10.414;2022-07-22T06:03:51;16.70;99.90
6978;DHT22;3529;53.244;10.414;2022-07-22T06:06:17;16.70;99.90
6978;DHT22;3529;53.244;10.414;2022-07-22T06:08:43;16.70;99.90
6978;DHT22;3529;53.244;10.414;2022-07-22T06:11:08;16.80;99.90
6978;DHT22;3529;53.244;10.414;2022-07-22T06:13:34;16.80;99.90
6978;DHT22;3529;53.244;10.414;2022-07-22T06:16:00;16.80;99.90
6978;DHT22;3529;53.244;10.414;2022-07-22T06:18:25;16.90;99.90
6978;DHT22;3529;53.244;10.414;2022-07-22T06:20:51;16.80;99.90
6978;DHT22;3529;53.244;10.414;2022-07-22T06:23:17;16.70;99.90
6978;DHT22;3529;53.244;10.414;2022-07-22T06:25:43;16.70;99.90
6978;DHT22;3529;53.244;10.414;2022-07-22T06:28:09;16.70;99.90
6978;DHT22;3529;53.244;10.414;2022-07-22T06:30:35;16.70;99.90
6978;DHT22;3529;53.244;10.414;2022-07-22T06:33:01;16.70;99.90
6978;DHT22;3529;53.244;10.414;2022-07-22T06:35:26;16.70;99.90
6978;DHT22;3529;53.244;10.414;2022-07-22T06:37:52;16.70;99.90
6978;DHT22;3529;53.244;10.414;2022-07-22T06:40:18;16.80;99.90
6978;DHT22;3529;53.244;10.414;2022-07-22T06:42:44;16.90;99.90
6978;DHT22;3529;53.244;10.414;2022-07-22T06:45:10;17.00;99.90
6978;DHT22;3529;53.244;10.414;2022-07-22T06:47:36;17.10;99.90
6978;DHT22;3529;53.244;10.414;2022-07-22T06:50:03;17.20;99.90
6978;DHT22;3529;53.244;10.414;2022-07-22T06:52:29;17.30;99.90
6978;DHT22;3529;53.244;10.414;2022-07-22T06:54:54;17.40;99.90
6978;DHT22;3529;53.244;10.414;2022-07-22T06:57:20;17.40;99.90
6978;DHT22;3529;53.244;10.414;2022-07-22T06:59:46;17.50;99.90
6978;DHT22;3529;53.244;10.414;2022-07-22T07:02:11;17.60;99.90
6978;DHT22;3529;53.244;10.414;2022-07-22T07:04:37;17.80;99.90
6978;DHT22;3529;53.244;10.414;2022-07-22T07:07:02;18.10;99.90
6978;DHT22;3529;53.244;10.414;2022-07-22T07:09:28;18.20;99.90
6978;DHT22;3529;53.244;10.414;2022-07-22T07:11:54;18.40;99.90
6978;DHT22;3529;53.244;10.414;2022-07-22T07:14:19;18.60;99.90
6978;DHT22;3529;53.244;10.414;2022-07-22T07:16:45;18.90;99.90
6978;DHT22;3529;53.244;10.414;2022-07-22T07:19:10;19.30;99.90
6978;DHT22;3529;53.244;10.414;2022-07-22T07:21:36;19.60;99.90
6978;DHT22;3529;53.244;10.414;2022-07-22T07:24:02;19.60;99.90
6978;DHT22;3529;53.244;10.414;2022-07-22T07:26:27;19.50;99.90
6978;DHT22;3529;53.244;10.414;2022-07-22T07:28:53;19.50;99.90
6978;DHT22;3529;53.244;10.414;2022-07-22T07:31:19;19.50;99.90
6978;DHT22;3529;53.244;10.414;2022-07-22T07:33:44;19.50;99.90
6978;DHT22;3529;53.244;10.414;2022-07-22T07:36:10;19.60;99.90
6978;DHT22;3529;53.244;10.414;2022-07-22T07:38:36;19.60;99.90
6978;DHT22;3529;53.244;10.414;2022-07-22T07:41:01;19.80;99.90
6978;DHT22;3529;53.244;10.414;2022-07-22T07:43:27;20.40;99.90
6978;DHT22;3529;53.244;10.414;2022-07-22T07:45:53;20.60;99.90
6978;DHT22;3529;53.244;10.414;2022-07-22T07:48:18;20.80;99.90
6978;DHT22;3529;53.244;10.414;2022-07-22T07:50:44;20.80;99.90
6978;DHT22;3529;53.244;10.414;2022-07-22T07:53:14;20.70;99.90
6978;DHT22;3529;53.244;10.414;2022-07-22T07:55:39;20.50;99.90
6978;DHT22;3529;53.244;10.414;2022-07-22T07:58:06;20.10;99.90
6978;DHT22;3529;53.244;10.414;2022-07-22T08:00:32;19.90;99.90
6978;DHT22;3529;53.244;10.414;2022-07-22T08:02:59;19.90;99.90
6978;DHT22;3529;53.244;10.414;2022-07-22T08:05:25;19.90;99.90
6978;DHT22;3529;53.244;10.414;2022-07-22T08:07:51;19.60;99.90
6978;DHT22;3529;53.244;10.414;2022-07-22T08:10:17;19.50;99.90
6978;DHT22;3529;53.244;10.414;2022-07-22T08:12:43;19.20;99.90
6978;DHT22;3529;53.244;10.414;2022-07-22T08:15:09;19.10;99.90
6978;DHT22;3529;53.244;10.414;2022-07-22T08:17:35;19.00;99.90
6978;DHT22;3529;53.244;10.414;2022-07-22T08:20:01;18.90;99.90
6978;DHT22;3529;53.244;10.414;2022-07-22T08:22:27;18.90;99.90
6978;DHT22;3529;53.244;10.414;2022-07-22T08:24:52;19.00;99.90
6978;DHT22;3529;53.244;10.414;2022-07-22T08:27:20;19.10;99.90
6978;DHT22;3529;53.244;10.414;2022-07-22T08:29:45;19.00;99.90
6978;DHT22;3529;53.244;10.414;2022-07-22T08:32:11;19.00;99.90
6978;DHT22;3529;53.244;10.414;2022-07-22T08:34:36;18.90;99.90
6978;DHT22;3529;53.244;10.414;2022-07-22T08:37:02;18.80;99.90
6978;DHT22;3529;53.244;10.414;2022-07-22T08:39:28;18.80;99.90
6978;DHT22;3529;53.244;10.414;2022-07-22T08:41:54;18.80;99.90
6978;DHT22;3529;53.244;10.414;2022-07-22T08:44:21;18.80;99.90
6978;DHT22;3529;53.244;10.414;2022-07-22T08:46:47;18.80;99.90
6978;DHT22;3529;53.244;10.414;2022-07-22T08:49:15;18.80;99.90
6978;DHT22;3529;53.244;10.414;2022-07-22T08:51:40;18.70;99.90
6978;DHT22;3529;53.244;10.414;2022-07-22T08:54:06;18.50;99.90
6978;DHT22;3529;53.244;10.414;2022-07-22T08:56:32;18.50;99.90
6978;DHT22;3529;53.244;10.414;2022-07-22T08:58:57;18.50;99.90
6978;DHT22;3529;53.244;10.414;2022-07-22T09:01:23;18.50;99.90
6978;DHT22;3529;53.244;10.414;2022-07-22T09:03:51;18.50;99.90
6978;DHT22;3529;53.244;10.414;2022-07-22T09:06:19;18.60;99.90
6978;DHT22;3529;53.244;10.414;2022-07-22T09:11:26;19.10;99.90
6978;DHT22;3529;53.244;10.414;2022-07-22T09:13:54;19.30;99.90
6978;DHT22;3529;53.244;10.414;2022-07-22T09:16:46;19.30;99.90
6978;DHT22;3529;53.244;10.414;2022-07-22T09:19:13;19.40;99.90
6978;DHT22;3529;53.244;10.414;2022-07-22T09:21:44;19.40;99.90
6978;DHT22;3529;53.244;10.414;2022-07-22T09:24:29;19.30;99.90
6978;DHT22;3529;53.244;10.414;2022-07-22T09:26:56;19.30;99.90
6978;DHT22;3529;53.244;10.414;2022-07-22T09:29:21;19.40;99.90
6978;DHT22;3529;53.244;10.414;2022-07-22T09:31:50;19.50;99.90
6978;DHT22;3529;53.244;10.414;2022-07-22T09:34:43;19.60;99.90
6978;DHT22;3529;53.244;10.414;2022-07-22T09:37:08;19.80;99.90
6978;DHT22;3529;53.244;10.414;2022-07-22T09:39:34;19.80;99.90
6978;DHT22;3529;53.244;10.414;2022-07-22T09:42:06;19.90;99.90
6978;DHT22;3529;53.244;10.414;2022-07-22T09:44:32;20.00;99.90
6978;DHT22;3529;53.244;10.414;2022-07-22T09:46:57;20.00;99.90
6978;DHT22;3529;53.244;10.414;2022-07-22T09:49:38;20.00;99.90
6978;DHT22;3529;53.244;10.414;2022-07-22T09:52:06;20.00;99.90
6978;DHT22;3529;53.244;10.414;2022-07-22T09:54:32;20.10;99.90
6978;DHT22;3529;53.244;10.414;2022-07-22T09:56:58;20.00;99.90
6978;DHT22;3529;53.244;10.414;2022-07-22T09:59:25;19.80;99.90
6978;DHT22;3529;53.244;10.414;2022-07-22T10:01:56;19.80;99.90
6978;DHT22;3529;53.244;10.414;2022-07-22T10:04:24;19.10;99.90
6978;DHT22;3529;53.244;10.414;2022-07-22T10:06:51;19.70;99.90
6978;DHT22;3529;53.244;10.414;2022-07-22T10:09:19;19.60;99.90
6978;DHT22;3529;53.244;10.414;2022-07-22T10:11:47;19.70;99.90
6978;DHT22;3529;53.244;10.414;2022-07-22T10:14:14;19.90;99.90
6978;DHT22;3529;53.244;10.414;2022-07-22T10:16:42;20.00;99.90
6978;DHT22;3529;53.244;10.414;2022-07-22T10:19:08;20.10;99.90
6978;DHT22;3529;53.244;10.414;2022-07-22T10:21:34;20.20;99.90
6978;DHT22;3529;53.244;10.414;2022-07-22T10:24:11;20.20;99.90
6978;DHT22;3529;53.244;10.414;2022-07-22T10:26:58;20.20;99.90
6978;DHT22;3529;53.244;10.414;2022-07-22T10:29:43;20.10;99.90
6978;DHT22;3529;53.244;10.414;2022-07-22T10:34:42;20.00;99.90
6978;DHT22;3529;53.244;10.414;2022-07-22T10:43:08;20.10;99.90
6978;DHT22;3529;53.244;10.414;2022-07-22T10:45:56;20.40;99.90
6978;DHT22;3529;53.244;10.414;2022-07-22T10:48:44;20.50;99.90
6978;DHT22;3529;53.244;10.414;2022-07-22T10:51:18;20.60;99.90
6978;DHT22;3529;53.244;10.414;2022-07-22T10:53:56;20.60;99.90
6978;DHT22;3529;53.244;10.414;2022-07-22T10:56:28;20.40;99.90
6978;DHT22;3529;53.244;10.414;2022-07-22T10:58:55;20.30;99.90
6978;DHT22;3529;53.244;10.414;2022-07-22T11:01:24;20.20;99.90
6978;DHT22;3529;53.244;10.414;2022-07-22T11:03:51;20.10;99.90
6978;DHT22;3529;53.244;10.414;2022-07-22T11:08:50;20.30;99.90
6978;DHT22;3529;53.244;10.414;2022-07-22T11:11:16;20.50;99.90
6978;DHT22;3529;53.244;10.414;2022-07-22T11:13:43;20.70;99.90
6978;DHT22;3529;53.244;10.414;2022-07-22T11:16:21;21.00;99.90
6978;DHT22;3529;53.244;10.414;2022-07-22T11:18:59;21.20;99.90
6978;DHT22;3529;53.244;10.414;2022-07-22T11:21:28;21.20;99.90
6978;DHT22;3529;53.244;10.414;2022-07-22T11:23:55;21.30;99.90
6978;DHT22;3529;53.244;10.414;2022-07-22T11:26:34;21.50;99.90
6978;DHT22;3529;53.244;10.414;2022-07-22T11:29:00;21.60;99.90
6978;DHT22;3529;53.244;10.414;2022-07-22T11:31:26;21.80;99.90
6978;DHT22;3529;53.244;10.414;2022-07-22T11:33:56;22.00;99.90
6978;DHT22;3529;53.244;10.414;2022-07-22T11:36:32;22.30;99.90
6978;DHT22;3529;53.244;10.414;2022-07-22T11:38:58;22.50;99.90
6978;DHT22;3529;53.244;10.414;2022-07-22T11:41:23;22.40;99.90
6978;DHT22;3529;53.244;10.414;2022-07-22T11:43:50;22.10;99.90
6978;DHT22;3529;53.244;10.414;2022-07-22T11:46:17;21.80;99.90
6978;DHT22;3529;53.244;10.414;2022-07-22T11:48:43;21.50;99.90
6978;DHT22;3529;53.244;10.414;2022-07-22T11:51:12;21.20;99.90
6978;DHT22;3529;53.244;10.414;2022-07-22T11:53:42;21.20;99.90
6978;DHT22;3529;53.244;10.414;2022-07-22T11:56:09;21.20;99.90
6978;DHT22;3529;53.244;10.414;2022-07-22T11:58:39;21.30;99.90
6978;DHT22;3529;53.244;10.414;2022-07-22T12:01:07;21.40;99.90
6978;DHT22;3529;53.244;10.414;2022-07-22T12:03:38;21.50;99.90
6978;DHT22;3529;53.244;10.414;2022-07-22T12:06:07;21.80;99.90
6978;DHT22;3529;53.244;10.414;2022-07-22T12:08:38;21.90;99.90
6978;DHT22;3529;53.244;10.414;2022-07-22T12:11:04;21.90;99.90
6978;DHT22;3529;53.244;10.414;2022-07-22T12:13:31;22.00;99.90
6978;DHT22;3529;53.244;10.414;2022-07-22T12:15:57;22.10;99.90
6978;DHT22;3529;53.244;10.414;2022-07-22T12:18:26;22.30;99.90
6978;DHT22;3529;53.244;10.414;2022-07-22T12:20:53;22.30;99.90
6978;DHT22;3529;53.244;10.414;2022-07-22T12:23:24;22.30;99.90
6978;DHT22;3529;53.244;10.414;2022-07-22T12:26:00;22.20;99.90
6978;DHT22;3529;53.244;10.414;2022-07-22T12:28:26;22.00;99.90
6978;DHT22;3529;53.244;10.414;2022-07-22T12:30:54;21.80;99.90
6978;DHT22;3529;53.244;10.414;2022-07-22T12:33:21;21.60;99.90
6978;DHT22;3529;53.244;10.414;2022-07-22T12:36:05;21.40;99.90
6978;DHT22;3529;53.244;10.414;2022-07-22T12:38:31;21.40;99.90
6978;DHT22;3529;53.244;10.414;2022-07-22T12:41:21;21.50;99.90
6978;DHT22;3529;53.244;10.414;2022-07-22T12:43:46;21.70;99.90
6978;DHT22;3529;53.244;10.414;2022-07-22T12:46:13;21.80;99.90
6978;DHT22;3529;53.244;10.414;2022-07-22T12:48:50;22.00;99.90
6978;DHT22;3529;53.244;10.414;2022-07-22T12:51:15;22.30;99.90
6978;DHT22;3529;53.244;10.414;2022-07-22T12:53:41;22.60;99.90
6978;DHT22;3529;53.244;10.414;2022-07-22T12:56:07;22.60;99.90
6978;DHT22;3529;53.244;10.414;2022-07-22T12:58:36;22.40;99.90
6978;DHT22;3529;53.244;10.414;2022-07-22T13:01:06;22.20;99.90
6978;DHT22;3529;53.244;10.414;2022-07-22T13:03:34;22.20;99.90
6978;DHT22;3529;53.244;10.414;2022-07-22T13:06:01;22.30;99.90
6978;DHT22;3529;53.244;10.414;2022-07-22T13:08:28;21.60;99.90
6978;DHT22;3529;53.244;10.414;2022-07-22T13:10:54;22.40;99.90
6978;DHT22;3529;53.244;10.414;2022-07-22T13:13:21;22.40;99.90
6978;DHT22;3529;53.244;10.414;2022-07-22T13:15:48;22.40;99.90
6978;DHT22;3529;53.244;10.414;2022-07-22T13:18:14;22.30;99.90
6978;DHT22;3529;53.244;10.414;2022-07-22T13:20:40;22.50;99.90
6978;DHT22;3529;53.244;10.414;2022-07-22T13:23:06;22.50;99.90
6978;DHT22;3529;53.244;10.414;2022-07-22T13:25:32;22.60;99.90
6978;DHT22;3529;53.244;10.414;2022-07-22T13:27:58;23.00;99.90
6978;DHT22;3529;53.244;10.414;2022-07-22T13:30:25;23.30;99.90
6978;DHT22;3529;53.244;10.414;2022-07-22T13:32:51;23.80;99.90
6978;DHT22;3529;53.244;10.414;2022-07-22T13:35:17;24.20;99.90
6978;DHT22;3529;53.244;10.414;2022-07-22T13:37:46;24.60;99.90
6978;DHT22;3529;53.244;10.414;2022-07-22T13:40:13;24.80;99.90
6978;DHT22;3529;53.244;10.414;2022-07-22T13:42:39;25.10;99.90
6978;DHT22;3529;53.244;10.414;2022-07-22T13:45:05;25.40;99.90
6978;DHT22;3529;53.244;10.414;2022-07-22T13:47:31;25.50;99.90
6978;DHT22;3529;53.244;10.414;2022-07-22T13:49:57;25.50;99.90
6978;DHT22;3529;53.244;10.414;2022-07-22T13:52:24;25.60;99.90
6978;DHT22;3529;53.244;10.414;2022-07-22T13:54:50;25.70;99.90
6978;DHT22;3529;53.244;10.414;2022-07-22T13:57:16;25.80;99.90
6978;DHT22;3529;53.244;10.414;2022-07-22T13:59:42;25.80;99.90
6978;DHT22;3529;53.244;10.414;2022-07-22T14:02:08;25.80;99.90
6978;DHT22;3529;53.244;10.414;2022-07-22T14:04:34;25.80;99.90
6978;DHT22;3529;53.244;10.414;2022-07-22T14:07:00;25.70;99.90
6978;DHT22;3529;53.244;10.414;2022-07-22T14:09:25;25.70;99.90
6978;DHT22;3529;53.244;10.414;2022-07-22T14:11:51;25.70;99.90
6978;DHT22;3529;53.244;10.414;2022-07-22T14:14:17;25.80;99.90
6978;DHT22;3529;53.244;10.414;2022-07-22T14:16:42;25.90;99.90
6978;DHT22;3529;53.244;10.414;2022-07-22T14:19:09;25.90;99.90
6978;DHT22;3529;53.244;10.414;2022-07-22T14:21:36;26.00;99.90
6978;DHT22;3529;53.244;10.414;2022-07-22T14:24:04;26.00;99.90
6978;DHT22;3529;53.244;10.414;2022-07-22T14:26:30;25.90;99.90
6978;DHT22;3529;53.244;10.414;2022-07-22T14:28:56;25.80;99.90
6978;DHT22;3529;53.244;10.414;2022-07-22T14:31:22;25.70;99.90
6978;DHT22;3529;53.244;10.414;2022-07-22T14:33:48;25.50;99.90
6978;DHT22;3529;53.244;10.414;2022-07-22T14:36:14;25.50;99.90
6978;DHT22;3529;53.244;10.414;2022-07-22T14:38:39;25.40;99.90
6978;DHT22;3529;53.244;10.414;2022-07-22T14:41:05;25.20;99.90
6978;DHT22;3529;53.244;10.414;2022-07-22T14:43:33;25.20;99.90
6978;DHT22;3529;53.244;10.414;2022-07-22T14:45:59;24.90;99.90
6978;DHT22;3529;53.244;10.414;2022-07-22T14:48:26;24.60;99.90
6978;DHT22;3529;53.244;10.414;2022-07-22T14:50:52;24.30;99.90
6978;DHT22;3529;53.244;10.414;2022-07-22T14:53:17;24.00;99.90
6978;DHT22;3529;53.244;10.414;2022-07-22T14:55:43;23.80;99.90
6978;DHT22;3529;53.244;10.414;2022-07-22T14:58:09;23.70;99.90
6978;DHT22;3529;53.244;10.414;2022-07-22T15:00:34;23.50;99.90
6978;DHT22;3529;53.244;10.414;2022-07-22T15:03:00;23.20;99.90
6978;DHT22;3529;53.244;10.414;2022-07-22T15:05:25;22.90;99.90
6978;DHT22;3529;53.244;10.414;2022-07-22T15:07:51;22.80;99.90
6978;DHT22;3529;53.244;10.414;2022-07-22T15:10:16;22.90;99.90
6978;DHT22;3529;53.244;10.414;2022-07-22T15:12:42;23.00;99.90
6978;DHT22;3529;53.244;10.414;2022-07-22T15:15:08;23.10;99.90
6978;DHT22;3529;53.244;10.414;2022-07-22T15:17:37;23.00;99.90
6978;DHT22;3529;53.244;10.414;2022-07-22T15:20:04;22.90;99.90
6978;DHT22;3529;53.244;10.414;2022-07-22T15:22:31;22.80;99.90
6978;DHT22;3529;53.244;10.414;2022-07-22T15:24:57;22.70;99.90
6978;DHT22;3529;53.244;10.414;2022-07-22T15:27:22;22.60;99.90
6978;DHT22;3529;53.244;10.414;2022-07-22T15:29:48;22.50;99.90
6978;DHT22;3529;53.244;10.414;2022-07-22T15:32:15;22.30;99.90
6978;DHT22;3529;53.244;10.414;2022-07-22T15:34:43;22.20;99.90
6978;DHT22;3529;53.244;10.414;2022-07-22T15:37:09;22.20;99.90
6978;DHT22;3529;53.244;10.414;2022-07-22T15:39:34;22.30;99.90
6978;DHT22;3529;53.244;10.414;2022-07-22T15:42:01;22.30;99.90
6978;DHT22;3529;53.244;10.414;2022-07-22T15:44:26;22.20;99.90
6978;DHT22;3529;53.244;10.414;2022-07-22T15:46:52;22.20;99.90
6978;DHT22;3529;53.244;10.414;2022-07-22T15:49:20;22.20;99.90
6978;DHT22;3529;53.244;10.414;2022-07-22T15:51:45;22.10;99.90
6978;DHT22;3529;53.244;10.414;2022-07-22T15:54:11;22.00;99.90
6978;DHT22;3529;53.244;10.414;2022-07-22T15:56:37;21.90;99.90